createdAt,value
2016-02-23T00:00:11.560Z,0
2016-02-23T00:01:11.563Z,0
2016-02-23T00:02:11.581Z,0
2016-02-23T00:03:11.584Z,0
2016-02-23T00:04:11.571Z,0
2016-02-23T00:05:11.581Z,0
2016-02-23T00:06:11.569Z,0
2016-02-23T00:07:11.587Z,0
2016-02-23T00:08:11.589Z,0
2016-02-23T00:09:11.593Z,0
2016-02-23T00:10:11.627Z,0
2016-02-23T00:11:11.613Z,0
2016-02-23T00:12:11.601Z,0
2016-02-23T00:13:11.603Z,0
2016-02-23T00:14:11.606Z,0
2016-02-23T00:15:11.608Z,0
2016-02-23T00:16:11.611Z,0
2016-02-23T00:17:11.458Z,0
2016-02-23T00:18:11.616Z,0
2016-02-23T00:19:11.619Z,0
2016-02-23T00:20:11.622Z,0
2016-02-23T00:21:11.610Z,0
2016-02-23T00:22:11.608Z,0
2016-02-23T00:23:11.600Z,0
2016-02-23T00:24:11.606Z,0
2016-02-23T00:25:11.582Z,0
2016-02-23T00:26:11.574Z,0
2016-02-23T00:27:11.568Z,0
2016-02-23T00:28:11.566Z,0
2016-02-23T00:29:11.549Z,0
2016-02-23T00:30:11.533Z,0
2016-02-23T00:31:11.547Z,0
2016-02-23T00:32:11.531Z,0
2016-02-23T00:33:11.578Z,0
2016-02-23T00:34:11.549Z,0
2016-02-23T00:35:11.582Z,0
2016-02-23T00:36:11.568Z,0
2016-02-23T00:37:11.553Z,0
2016-02-23T00:38:11.555Z,0
2016-02-23T00:39:11.573Z,0
2016-02-23T00:40:11.545Z,0
2016-02-23T00:41:11.608Z,0
2016-02-23T00:42:11.601Z,0
2016-02-23T00:43:11.573Z,0
2016-02-23T00:44:11.560Z,0
2016-02-23T00:45:11.547Z,0
2016-02-23T00:46:11.566Z,0
2016-02-23T00:47:11.568Z,0
2016-02-23T00:48:11.414Z,0
2016-02-23T00:49:11.574Z,0
2016-02-23T00:50:11.561Z,0
2016-02-23T00:51:11.578Z,0
2016-02-23T00:52:11.581Z,0
2016-02-23T00:53:11.569Z,0
2016-02-23T00:54:11.572Z,0
2016-02-23T00:55:11.590Z,0
2016-02-23T00:56:11.577Z,0
2016-02-23T00:57:11.564Z,0
2016-02-23T00:58:11.598Z,0
2016-02-23T00:59:11.585Z,0
2016-02-23T01:00:11.588Z,0
2016-02-23T01:01:11.575Z,0
2016-02-23T01:02:11.577Z,0
2016-02-23T01:03:11.580Z,0
2016-02-23T01:04:11.568Z,0
2016-02-23T01:05:11.507Z,0
2016-02-23T01:06:11.588Z,0
2016-02-23T01:07:11.591Z,0
2016-02-23T01:08:11.609Z,0
2016-02-23T01:09:11.627Z,0
2016-02-23T01:10:11.599Z,0
2016-02-23T01:11:11.632Z,0
2016-02-23T01:12:11.636Z,0
2016-02-23T01:13:11.623Z,0
2016-02-23T01:14:11.594Z,0
2016-02-23T01:15:11.643Z,0
2016-02-23T01:16:11.615Z,0
2016-02-23T01:17:11.649Z,0
2016-02-23T01:18:11.636Z,0
2016-02-23T01:19:11.608Z,0
2016-02-23T01:20:11.626Z,0
2016-02-23T01:21:11.676Z,0
2016-02-23T01:22:11.600Z,0
2016-02-23T01:23:11.665Z,0
2016-02-23T01:24:11.621Z,0
2016-02-23T01:25:11.656Z,0
2016-02-23T01:26:11.642Z,0
2016-02-23T01:27:11.660Z,0
2016-02-23T01:28:11.694Z,0
2016-02-23T01:29:11.635Z,0
2016-02-23T01:30:11.731Z,0
2016-02-23T01:31:11.624Z,0
2016-02-23T01:32:11.658Z,0
2016-02-23T01:33:11.646Z,0
2016-02-23T01:34:11.664Z,0
2016-02-23T01:35:11.651Z,0
2016-02-23T01:36:11.653Z,0
2016-02-23T01:37:11.657Z,0
2016-02-23T01:38:11.721Z,0
2016-02-23T01:39:11.677Z,0
2016-02-23T01:40:11.649Z,0
2016-02-23T01:41:11.667Z,0
2016-02-23T01:42:11.654Z,0
2016-02-23T01:43:11.688Z,0
2016-02-23T01:44:11.675Z,0
2016-02-23T01:45:11.678Z,0
2016-02-23T01:46:11.712Z,0
2016-02-23T01:47:11.667Z,0
2016-02-23T01:48:11.670Z,0
2016-02-23T01:49:11.673Z,0
2016-02-23T01:50:11.691Z,0
2016-02-23T01:51:11.740Z,0
2016-02-23T01:52:11.743Z,0
2016-02-23T01:53:11.683Z,0
2016-02-23T01:54:11.670Z,0
2016-02-23T01:55:11.720Z,0
2016-02-23T01:56:11.675Z,0
2016-02-23T01:57:11.711Z,0
2016-02-23T01:58:11.681Z,0
2016-02-23T01:59:11.699Z,0
2016-02-23T02:00:11.703Z,0
2016-02-23T02:01:11.721Z,0
2016-02-23T02:02:11.723Z,0
2016-02-23T02:03:11.726Z,0
2016-02-23T02:04:11.697Z,0
2016-02-23T02:05:11.716Z,0
2016-02-23T02:06:11.688Z,0
2016-02-23T02:07:11.690Z,0
2016-02-23T02:08:11.693Z,0
2016-02-23T02:09:11.696Z,0
2016-02-23T02:10:11.713Z,0
2016-02-23T02:11:11.684Z,0
2016-02-23T02:12:11.704Z,0
2016-02-23T02:13:11.721Z,0
2016-02-23T02:14:11.724Z,0
2016-02-23T02:15:11.712Z,0
2016-02-23T02:16:11.698Z,0
2016-02-23T02:17:11.717Z,0
2016-02-23T02:18:11.735Z,0
2016-02-23T02:19:11.706Z,0
2016-02-23T02:20:11.725Z,0
2016-02-23T02:21:11.712Z,0
2016-02-23T02:22:11.731Z,0
2016-02-23T02:23:11.733Z,0
2016-02-23T02:24:11.751Z,0
2016-02-23T02:25:11.864Z,0
2016-02-23T02:26:11.756Z,0
2016-02-23T02:27:11.728Z,0
2016-02-23T02:28:11.747Z,0
2016-02-23T02:29:11.733Z,0
2016-02-23T02:30:11.741Z,0
2016-02-23T02:31:11.744Z,0
2016-02-23T02:32:11.762Z,0
2016-02-23T02:33:11.733Z,0
2016-02-23T02:34:11.752Z,0
2016-02-23T02:35:11.801Z,0
2016-02-23T02:36:11.757Z,0
2016-02-23T02:37:11.760Z,0
2016-02-23T02:38:11.824Z,0
2016-02-23T02:39:11.844Z,0
2016-02-23T02:40:11.768Z,0
2016-02-23T02:41:11.754Z,0
2016-02-23T02:42:11.758Z,0
2016-02-23T02:43:11.792Z,0
2016-02-23T02:44:11.794Z,0
2016-02-23T02:45:11.843Z,0
2016-02-23T02:46:11.768Z,0
2016-02-23T02:47:11.770Z,0
2016-02-23T02:48:11.774Z,0
2016-02-23T02:49:11.761Z,0
2016-02-23T02:50:11.763Z,0
2016-02-23T02:51:11.782Z,0
2016-02-23T02:52:11.769Z,0
2016-02-23T02:53:11.771Z,0
2016-02-23T02:54:11.775Z,0
2016-02-23T02:55:11.777Z,0
2016-02-23T02:56:11.780Z,0
2016-02-23T02:57:11.767Z,0
2016-02-23T02:58:11.769Z,0
2016-02-23T02:59:11.022Z,0
2016-02-23T03:00:11.775Z,0
2016-02-23T03:01:11.793Z,0
2016-02-23T03:02:11.780Z,0
2016-02-23T03:03:11.814Z,0
2016-02-23T03:04:11.786Z,0
2016-02-23T03:05:12.069Z,0
2016-02-23T03:06:11.807Z,0
2016-02-23T03:07:11.810Z,0
2016-02-23T03:08:11.655Z,0
2016-02-23T03:09:11.815Z,0
2016-02-23T03:10:11.817Z,0
2016-02-23T03:11:11.835Z,0
2016-02-23T03:12:11.822Z,0
2016-02-23T03:13:11.841Z,0
2016-02-23T03:14:11.828Z,0
2016-02-23T03:15:11.831Z,0
2016-02-23T03:16:11.834Z,0
2016-02-23T03:17:11.836Z,0
2016-02-23T03:18:11.870Z,0
2016-02-23T03:19:11.842Z,0
2016-02-23T03:20:11.906Z,0
2016-02-23T03:21:11.847Z,0
2016-02-23T03:22:11.834Z,0
2016-02-23T03:23:11.899Z,0
2016-02-23T03:24:11.903Z,0
2016-02-23T03:25:11.873Z,0
2016-02-23T03:26:11.844Z,0
2016-02-23T03:27:11.832Z,0
2016-02-23T03:28:11.897Z,0
2016-02-23T03:29:11.822Z,0
2016-02-23T03:30:11.839Z,0
2016-02-23T03:31:11.842Z,0
2016-02-23T03:32:11.844Z,0
2016-02-23T03:33:11.880Z,0
2016-02-23T03:34:11.850Z,0
2016-02-23T03:35:11.868Z,0
2016-02-23T03:36:11.841Z,0
2016-02-23T03:37:11.858Z,0
2016-02-23T03:38:11.861Z,0
2016-02-23T03:39:11.848Z,0
2016-02-23T03:40:11.866Z,0
2016-02-23T03:41:11.869Z,0
2016-02-23T03:42:11.872Z,0
2016-02-23T03:43:11.874Z,0
2016-02-23T03:44:11.877Z,0
2016-02-23T03:45:11.754Z,0
2016-02-23T03:46:11.883Z,0
2016-02-23T03:47:11.885Z,0
2016-02-23T03:48:11.747Z,0
2016-02-23T03:49:11.891Z,0
2016-02-23T03:50:11.940Z,0
2016-02-23T03:51:11.896Z,0
2016-02-23T03:52:11.899Z,0
2016-02-23T03:53:11.730Z,0
2016-02-23T03:54:11.904Z,0
2016-02-23T03:55:11.892Z,0
2016-02-23T03:56:11.894Z,0
2016-02-23T03:57:11.896Z,0
2016-02-23T03:58:11.900Z,0
2016-02-23T03:59:11.902Z,0
2016-02-23T04:00:11.905Z,0
2016-02-23T04:01:11.892Z,0
2016-02-23T04:02:11.910Z,0
2016-02-23T04:03:11.913Z,0
2016-02-23T04:04:11.900Z,0
2016-02-23T04:05:11.949Z,0
2016-02-23T04:06:11.921Z,0
2016-02-23T04:07:11.924Z,0
2016-02-23T04:08:11.910Z,0
2016-02-23T04:09:11.929Z,0
2016-02-23T04:10:11.979Z,0
2016-02-23T04:11:11.982Z,0
2016-02-23T04:12:11.937Z,0
2016-02-23T04:13:11.940Z,0
2016-02-23T04:14:11.943Z,0
2016-02-23T04:15:11.929Z,0
2016-02-23T04:16:11.948Z,0
2016-02-23T04:17:11.795Z,0
2016-02-23T04:18:11.953Z,0
2016-02-23T04:19:11.940Z,0
2016-02-23T04:20:11.943Z,0
2016-02-23T04:21:11.945Z,0
2016-02-23T04:22:11.948Z,0
2016-02-23T04:23:11.951Z,0
2016-02-23T04:24:11.969Z,0
2016-02-23T04:25:11.987Z,0
2016-02-23T04:26:11.959Z,0
2016-02-23T04:27:11.977Z,0
2016-02-23T04:28:11.965Z,0
2016-02-23T04:29:11.967Z,0
2016-02-23T04:30:12.047Z,0
2016-02-23T04:31:11.973Z,0
2016-02-23T04:32:11.975Z,0
2016-02-23T04:33:11.947Z,0
2016-02-23T04:34:11.966Z,0
2016-02-23T04:35:11.983Z,0
2016-02-23T04:36:11.986Z,0
2016-02-23T04:37:11.989Z,0
2016-02-23T04:38:11.976Z,0
2016-02-23T04:39:11.978Z,0
2016-02-23T04:40:11.981Z,0
2016-02-23T04:41:11.984Z,0
2016-02-23T04:42:11.987Z,0
2016-02-23T04:43:12.004Z,0
2016-02-23T04:44:11.992Z,0
2016-02-23T04:45:12.010Z,0
2016-02-23T04:46:11.982Z,0
2016-02-23T04:47:12.016Z,0
2016-02-23T04:48:11.987Z,0
2016-02-23T04:49:11.989Z,0
2016-02-23T04:50:12.009Z,0
2016-02-23T04:51:11.995Z,0
2016-02-23T04:52:12.013Z,0
2016-02-23T04:53:12.001Z,0
2016-02-23T04:54:12.003Z,0
2016-02-23T04:55:12.006Z,0
2016-02-23T04:56:12.009Z,0
2016-02-23T04:57:12.073Z,0
2016-02-23T04:58:12.076Z,0
2016-02-23T04:59:12.033Z,0
2016-02-23T05:00:12.066Z,0
2016-02-23T05:01:12.022Z,0
2016-02-23T05:02:12.008Z,0
2016-02-23T05:03:12.012Z,0
2016-02-23T05:04:11.999Z,0
2016-02-23T05:05:12.033Z,0
2016-02-23T05:06:12.019Z,0
2016-02-23T05:07:12.022Z,0
2016-02-23T05:08:12.025Z,0
2016-02-23T05:09:12.013Z,0
2016-02-23T05:10:12.046Z,0
2016-02-23T05:11:12.017Z,0
2016-02-23T05:12:12.036Z,0
2016-02-23T05:13:12.023Z,0
2016-02-23T05:14:12.026Z,0
2016-02-23T05:15:12.060Z,0
2016-02-23T05:16:12.015Z,0
2016-02-23T05:17:12.049Z,0
2016-02-23T05:18:12.021Z,0
2016-02-23T05:19:12.039Z,0
2016-02-23T05:20:12.042Z,0
2016-02-23T05:21:12.045Z,0
2016-02-23T05:22:12.047Z,0
2016-02-23T05:23:12.050Z,0
2016-02-23T05:24:12.037Z,0
2016-02-23T05:25:12.056Z,0
2016-02-23T05:26:12.120Z,0
2016-02-23T05:27:24.811Z,0
2016-02-23T05:28:12.063Z,0
2016-02-23T05:29:12.066Z,0
2016-02-23T05:30:12.131Z,0
2016-02-23T05:31:12.072Z,0
2016-02-23T05:32:12.042Z,0
2016-02-23T05:33:12.045Z,0
2016-02-23T05:34:12.064Z,0
2016-02-23T05:35:12.050Z,0
2016-02-23T05:36:12.069Z,0
2016-02-23T05:37:12.072Z,0
2016-02-23T05:38:12.075Z,0
2016-02-23T05:39:12.077Z,0
2016-02-23T05:40:12.064Z,0
2016-02-23T05:41:12.066Z,0
2016-02-23T05:42:12.055Z,0
2016-02-23T05:43:12.104Z,0
2016-02-23T05:44:12.075Z,0
2016-02-23T05:45:12.077Z,0
2016-02-23T05:46:12.080Z,0
2016-02-23T05:47:12.083Z,0
2016-02-23T05:48:12.085Z,0
2016-02-23T05:49:12.073Z,0
2016-02-23T05:50:24.810Z,0
2016-02-23T05:51:12.093Z,0
2016-02-23T05:52:12.097Z,0
2016-02-23T05:53:12.084Z,0
2016-02-23T05:54:12.086Z,0
2016-02-23T05:55:12.104Z,0
2016-02-23T05:56:12.107Z,0
2016-02-23T05:57:12.078Z,0
2016-02-23T05:58:12.128Z,0
2016-02-23T05:59:12.115Z,0
2016-02-23T06:00:12.102Z,0
2016-02-23T06:01:12.106Z,0
2016-02-23T06:02:12.092Z,0
2016-02-23T06:03:12.094Z,0
2016-02-23T06:04:12.113Z,0
2016-02-23T06:05:12.100Z,0
2016-02-23T06:06:12.134Z,0
2016-02-23T06:07:12.090Z,0
2016-02-23T06:08:24.827Z,0
2016-02-23T06:09:12.096Z,0
2016-02-23T06:10:12.114Z,0
2016-02-23T06:11:12.101Z,0
2016-02-23T06:12:12.104Z,0
2016-02-23T06:13:12.122Z,0
2016-02-23T06:14:12.109Z,0
2016-02-23T06:15:12.158Z,0
2016-02-23T06:16:12.161Z,0
2016-02-23T06:17:12.101Z,0
2016-02-23T06:18:12.105Z,0
2016-02-23T06:19:12.091Z,0
2016-02-23T06:20:12.094Z,0
2016-02-23T06:21:12.128Z,0
2016-02-23T06:22:12.084Z,0
2016-02-23T06:23:12.101Z,0
2016-02-23T06:24:12.104Z,0
2016-02-23T06:25:12.139Z,0
2016-02-23T06:26:24.812Z,0
2016-02-23T06:27:12.098Z,0
2016-02-23T06:28:12.100Z,0
2016-02-23T06:29:12.118Z,0
2016-02-23T06:30:12.198Z,0
2016-02-23T06:31:12.108Z,0
2016-02-23T06:32:12.111Z,0
2016-02-23T06:33:12.066Z,0
2016-02-23T06:34:12.084Z,0
2016-02-23T06:35:12.134Z,0
2016-02-23T06:36:12.090Z,0
2016-02-23T06:37:12.093Z,5
2016-02-23T06:38:12.080Z,5
2016-02-23T06:39:12.082Z,5
2016-02-23T06:40:12.100Z,5
2016-02-23T06:41:12.103Z,5
2016-02-23T06:42:24.825Z,5
2016-02-23T06:43:12.093Z,5
2016-02-23T06:44:12.096Z,5
2016-02-23T06:45:12.083Z,5
2016-02-23T06:46:12.085Z,10
2016-02-23T06:47:12.229Z,10
2016-02-23T06:48:12.060Z,10
2016-02-23T06:49:12.093Z,10
2016-02-23T06:50:12.065Z,10
2016-02-23T06:51:12.099Z,10
2016-02-23T06:52:12.070Z,10
2016-02-23T06:53:12.104Z,10
2016-02-23T06:54:24.826Z,10
2016-02-23T06:55:12.109Z,10
2016-02-23T06:56:12.066Z,15
2016-02-23T06:57:12.053Z,20
2016-02-23T06:58:12.086Z,20
2016-02-23T06:59:12.059Z,20
2016-02-23T07:00:12.045Z,20
2016-02-23T07:01:12.063Z,15
2016-02-23T07:02:12.066Z,15
2016-02-23T07:03:12.053Z,15
2016-02-23T07:04:12.056Z,15
2016-02-23T07:05:12.043Z,15
2016-02-23T07:06:11.295Z,20
2016-02-23T07:07:24.798Z,15
2016-02-23T07:08:12.050Z,15
2016-02-23T07:09:12.054Z,20
2016-02-23T07:10:12.041Z,20
2016-02-23T07:11:12.058Z,15
2016-02-23T07:12:12.030Z,15
2016-02-23T07:13:12.049Z,10
2016-02-23T07:14:12.239Z,10
2016-02-23T07:15:12.054Z,15
2016-02-23T07:16:12.041Z,15
2016-02-23T07:17:12.029Z,20
2016-02-23T07:18:12.031Z,20
2016-02-23T07:19:12.034Z,25
2016-02-23T07:20:12.037Z,25
2016-02-23T07:21:12.054Z,20
2016-02-23T07:22:12.043Z,25
2016-02-23T07:23:12.045Z,25
2016-02-23T07:24:12.031Z,25
2016-02-23T07:25:12.065Z,25
2016-02-23T07:26:12.021Z,25
2016-02-23T07:27:24.836Z,25
2016-02-23T07:28:12.011Z,30
2016-02-23T07:29:11.904Z,30
2016-02-23T07:30:12.017Z,30
2016-02-23T07:31:12.020Z,25
2016-02-23T07:32:12.007Z,25
2016-02-23T07:33:12.025Z,30
2016-02-23T07:34:12.011Z,35
2016-02-23T07:35:11.874Z,35
2016-02-23T07:36:12.048Z,30
2016-02-23T07:37:12.004Z,30
2016-02-23T07:38:11.991Z,30
2016-02-23T07:39:12.025Z,25
2016-02-23T07:40:11.997Z,25
2016-02-23T07:41:12.015Z,20
2016-02-23T07:42:11.986Z,25
2016-02-23T07:43:12.020Z,40
2016-02-23T07:44:11.992Z,45
2016-02-23T07:45:11.979Z,45
2016-02-23T07:46:11.996Z,35
2016-02-23T07:47:11.999Z,35
2016-02-23T07:48:11.988Z,35
2016-02-23T07:49:24.740Z,40
2016-02-23T07:50:12.039Z,40
2016-02-23T07:51:12.026Z,30
2016-02-23T07:52:11.982Z,30
2016-02-23T07:53:12.016Z,35
2016-02-23T07:54:11.987Z,45
2016-02-23T07:55:11.990Z,45
2016-02-23T07:56:24.712Z,45
2016-02-23T07:57:12.012Z,40
2016-02-23T07:58:11.982Z,40
2016-02-23T07:59:12.032Z,40
2016-02-23T08:00:12.004Z,35
2016-02-23T08:01:11.975Z,35
2016-02-23T08:02:11.978Z,30
2016-02-23T08:03:11.996Z,30
2016-02-23T08:04:11.983Z,30
2016-02-23T08:05:11.985Z,30
2016-02-23T08:06:12.019Z,30
2016-02-23T08:07:11.959Z,40
2016-02-23T08:08:11.962Z,50
2016-02-23T08:09:11.809Z,45
2016-02-23T08:10:12.030Z,35
2016-02-23T08:11:11.970Z,30
2016-02-23T08:12:11.989Z,40
2016-02-23T08:13:11.960Z,45
2016-02-23T08:14:11.994Z,65
2016-02-23T08:15:11.980Z,60
2016-02-23T08:16:24.687Z,50
2016-02-23T08:17:11.955Z,40
2016-02-23T08:18:11.943Z,30
2016-02-23T08:19:11.961Z,30
2016-02-23T08:20:11.948Z,30
2016-02-23T08:21:11.966Z,30
2016-02-23T08:22:11.969Z,35
2016-02-23T08:23:11.956Z,35
2016-02-23T08:24:11.943Z,35
2016-02-23T08:25:11.946Z,40
2016-02-23T08:26:11.948Z,45
2016-02-23T08:27:11.951Z,50
2016-02-23T08:28:11.953Z,55
2016-02-23T08:29:12.004Z,55
2016-02-23T08:30:11.943Z,55
2016-02-23T08:31:11.915Z,50
2016-02-23T08:32:11.948Z,45
2016-02-23T08:33:11.952Z,45
2016-02-23T08:34:11.798Z,45
2016-02-23T08:35:11.925Z,45
2016-02-23T08:36:11.929Z,50
2016-02-23T08:37:11.900Z,55
2016-02-23T08:38:11.934Z,55
2016-02-23T08:39:11.936Z,55
2016-02-23T08:40:24.658Z,55
2016-02-23T08:41:11.958Z,55
2016-02-23T08:42:11.898Z,55
2016-02-23T08:43:11.931Z,60
2016-02-23T08:44:11.919Z,55
2016-02-23T08:45:11.906Z,55
2016-02-23T08:46:11.955Z,55
2016-02-23T08:47:11.896Z,55
2016-02-23T08:48:11.914Z,55
2016-02-23T08:49:18.369Z,55
2016-02-23T08:50:11.904Z,55
2016-02-23T08:51:11.906Z,55
2016-02-23T08:52:11.893Z,55
2016-02-23T08:53:11.912Z,55
2016-02-23T08:54:11.899Z,55
2016-02-23T08:55:11.885Z,55
2016-02-23T08:56:11.904Z,55
2016-02-23T08:57:11.876Z,55
2016-02-23T08:58:11.721Z,55
2016-02-23T08:59:11.912Z,55
2016-02-23T09:00:11.868Z,55
2016-02-23T09:01:11.906Z,55
2016-02-23T09:02:11.878Z,55
2016-02-23T09:03:24.615Z,55
2016-02-23T09:04:11.884Z,55
2016-02-23T09:05:11.875Z,55
2016-02-23T09:06:11.878Z,55
2016-02-23T09:07:11.881Z,55
2016-02-23T09:08:11.869Z,50
2016-02-23T09:09:11.871Z,45
2016-02-23T09:10:11.874Z,45
2016-02-23T09:11:11.861Z,40
2016-02-23T09:12:11.864Z,40
2016-02-23T09:13:11.866Z,40
2016-02-23T09:14:11.869Z,35
2016-02-23T09:15:11.872Z,35
2016-02-23T09:16:11.874Z,30
2016-02-23T09:17:11.846Z,30
2016-02-23T09:18:11.864Z,30
2016-02-23T09:19:11.694Z,35
2016-02-23T09:20:11.854Z,40
2016-02-23T09:21:11.841Z,45
2016-02-23T09:22:11.843Z,50
2016-02-23T09:23:11.846Z,65
2016-02-23T09:24:11.833Z,75
2016-02-23T09:25:11.836Z,95
2016-02-23T09:26:11.838Z,105
2016-02-23T09:27:11.857Z,110
2016-02-23T09:28:11.823Z,120
2016-02-23T09:29:11.828Z,130
2016-02-23T09:30:11.834Z,140
2016-02-23T09:31:11.808Z,145
2016-02-23T09:32:11.767Z,145
2016-02-23T09:33:11.761Z,145
2016-02-23T09:34:11.775Z,145
2016-02-23T09:35:11.742Z,145
2016-02-23T09:36:11.739Z,145
2016-02-23T09:37:11.738Z,145
2016-02-23T09:38:24.487Z,145
2016-02-23T09:39:11.706Z,145
2016-02-23T09:40:11.723Z,145
2016-02-23T09:41:11.770Z,145
2016-02-23T09:42:10.975Z,145
2016-02-23T09:43:11.726Z,140
2016-02-23T09:44:11.728Z,145
2016-02-23T09:45:11.715Z,175
2016-02-23T09:46:11.702Z,175
2016-02-23T09:47:11.704Z,155
2016-02-23T09:48:11.690Z,155
2016-02-23T09:49:11.709Z,145
2016-02-23T09:50:11.711Z,135
2016-02-23T09:51:11.728Z,125
2016-02-23T09:52:11.731Z,120
2016-02-23T09:53:11.718Z,115
2016-02-23T09:54:11.705Z,105
2016-02-23T09:55:11.708Z,105
2016-02-23T09:56:11.694Z,105
2016-02-23T09:57:11.729Z,110
2016-02-23T09:58:11.732Z,110
2016-02-23T09:59:11.671Z,120
2016-02-23T10:00:11.705Z,130
2016-02-23T10:01:11.693Z,135
2016-02-23T10:02:11.680Z,140
2016-02-23T10:03:11.682Z,140
2016-02-23T10:04:11.670Z,140
2016-02-23T10:05:11.704Z,135
2016-02-23T10:06:11.675Z,130
2016-02-23T10:07:11.678Z,125
2016-02-23T10:08:11.696Z,130
2016-02-23T10:09:11.683Z,130
2016-02-23T10:10:11.654Z,135
2016-02-23T10:11:24.423Z,140
2016-02-23T10:12:11.706Z,145
2016-02-23T10:13:11.694Z,150
2016-02-23T10:14:11.650Z,150
2016-02-23T10:15:11.668Z,130
2016-02-23T10:16:11.655Z,120
2016-02-23T10:17:11.658Z,115
2016-02-23T10:18:11.661Z,110
2016-02-23T10:19:11.663Z,115
2016-02-23T10:20:11.681Z,115
2016-02-23T10:21:11.668Z,115
2016-02-23T10:22:11.687Z,110
2016-02-23T10:23:11.658Z,120
2016-02-23T10:24:11.661Z,125
2016-02-23T10:25:11.663Z,125
2016-02-23T10:26:11.666Z,135
2016-02-23T10:27:11.716Z,140
2016-02-23T10:28:24.405Z,145
2016-02-23T10:29:11.643Z,135
2016-02-23T10:30:11.661Z,130
2016-02-23T10:31:11.663Z,125
2016-02-23T10:32:11.651Z,120
2016-02-23T10:33:11.638Z,115
2016-02-23T10:34:11.657Z,110
2016-02-23T10:35:11.643Z,110
2016-02-23T10:36:11.646Z,100
2016-02-23T10:37:11.634Z,95
2016-02-23T10:38:24.387Z,100
2016-02-23T10:39:11.654Z,100
2016-02-23T10:40:11.626Z,105
2016-02-23T10:41:11.660Z,110
2016-02-23T10:42:11.631Z,110
2016-02-23T10:43:11.650Z,110
2016-02-23T10:44:11.620Z,110
2016-02-23T10:45:11.623Z,110
2016-02-23T10:46:11.658Z,120
2016-02-23T10:47:11.611Z,125
2016-02-23T10:48:11.663Z,115
2016-02-23T10:49:11.600Z,105
2016-02-23T10:50:11.603Z,105
2016-02-23T10:51:11.637Z,105
2016-02-23T10:52:11.624Z,120
2016-02-23T10:53:11.611Z,130
2016-02-23T10:54:11.614Z,155
2016-02-23T10:55:11.616Z,170
2016-02-23T10:56:11.619Z,175
2016-02-23T10:57:11.622Z,165
2016-02-23T10:58:11.609Z,155
2016-02-23T10:59:11.581Z,140
2016-02-23T11:00:24.351Z,125
2016-02-23T11:01:11.585Z,120
2016-02-23T11:02:11.605Z,115
2016-02-23T11:03:11.591Z,115
2016-02-23T11:04:11.624Z,115
2016-02-23T11:05:11.581Z,115
2016-02-23T11:06:11.584Z,120
2016-02-23T11:07:11.618Z,130
2016-02-23T11:08:11.621Z,140
2016-02-23T11:09:11.576Z,140
2016-02-23T11:10:11.610Z,135
2016-02-23T11:11:11.566Z,130
2016-02-23T11:12:11.585Z,130
2016-02-23T11:13:11.556Z,135
2016-02-23T11:14:11.574Z,130
2016-02-23T11:15:11.561Z,145
2016-02-23T11:16:11.564Z,150
2016-02-23T11:17:11.566Z,170
2016-02-23T11:18:11.553Z,195
2016-02-23T11:19:11.556Z,195
2016-02-23T11:20:11.575Z,195
2016-02-23T11:21:11.545Z,180
2016-02-23T11:22:11.548Z,165
2016-02-23T11:23:11.551Z,160
2016-02-23T11:24:11.553Z,155
2016-02-23T11:25:11.556Z,155
2016-02-23T11:26:11.559Z,155
2016-02-23T11:27:11.562Z,150
2016-02-23T11:28:11.533Z,145
2016-02-23T11:29:11.536Z,140
2016-02-23T11:30:11.555Z,140
2016-02-23T11:31:11.541Z,130
2016-02-23T11:32:24.266Z,120
2016-02-23T11:33:11.563Z,120
2016-02-23T11:34:11.519Z,120
2016-02-23T11:35:11.521Z,115
2016-02-23T11:36:11.524Z,120
2016-02-23T11:37:11.557Z,110
2016-02-23T11:38:11.499Z,110
2016-02-23T11:39:11.516Z,100
2016-02-23T11:40:11.535Z,95
2016-02-23T11:41:11.506Z,85
2016-02-23T11:42:11.493Z,80
2016-02-23T11:43:11.495Z,75
2016-02-23T11:44:11.498Z,75
2016-02-23T11:45:11.736Z,70
2016-02-23T11:46:11.488Z,65
2016-02-23T11:47:11.476Z,65
2016-02-23T11:48:11.478Z,60
2016-02-23T11:49:11.481Z,60
2016-02-23T11:50:11.498Z,65
2016-02-23T11:51:11.486Z,65
2016-02-23T11:52:11.472Z,65
2016-02-23T11:53:11.613Z,75
2016-02-23T11:54:11.636Z,85
2016-02-23T11:55:11.327Z,85
2016-02-23T11:56:25.143Z,85
2016-02-23T11:57:11.764Z,85
2016-02-23T11:58:11.329Z,85
2016-02-23T11:59:11.441Z,80
2016-02-23T12:00:11.350Z,75
2016-02-23T12:01:11.446Z,80
2016-02-23T12:02:11.449Z,85
2016-02-23T12:03:11.437Z,90
2016-02-23T12:04:11.454Z,95
2016-02-23T12:05:11.442Z,110
2016-02-23T12:06:11.435Z,115
2016-02-23T12:07:11.418Z,115
2016-02-23T12:08:11.295Z,115
2016-02-23T12:09:11.408Z,115
2016-02-23T12:10:11.425Z,100
2016-02-23T12:11:24.149Z,95
2016-02-23T12:12:11.399Z,95
2016-02-23T12:13:11.402Z,85
2016-02-23T12:14:11.421Z,90
2016-02-23T12:15:11.407Z,100
2016-02-23T12:16:11.395Z,90
2016-02-23T12:17:11.398Z,80
2016-02-23T12:18:11.400Z,75
2016-02-23T12:19:11.404Z,75
2016-02-23T12:20:11.375Z,65
2016-02-23T12:21:11.377Z,65
2016-02-23T12:22:11.380Z,60
2016-02-23T12:23:11.382Z,60
2016-02-23T12:24:11.370Z,60
2016-02-23T12:25:11.372Z,60
2016-02-23T12:26:11.360Z,60
2016-02-23T12:27:11.363Z,60
2016-02-23T12:28:11.334Z,60
2016-02-23T12:29:11.368Z,60
2016-02-23T12:30:11.370Z,60
2016-02-23T12:31:11.342Z,65
2016-02-23T12:32:11.329Z,70
2016-02-23T12:33:11.332Z,70
2016-02-23T12:34:11.334Z,75
2016-02-23T12:35:11.322Z,70
2016-02-23T12:36:11.324Z,70
2016-02-23T12:37:11.327Z,75
2016-02-23T12:38:11.313Z,70
2016-02-23T12:39:11.317Z,70
2016-02-23T12:40:11.336Z,65
2016-02-23T12:41:11.322Z,65
2016-02-23T12:42:24.046Z,65
2016-02-23T12:43:11.296Z,65
2016-02-23T12:44:11.283Z,65
2016-02-23T12:45:11.317Z,60
2016-02-23T12:46:11.304Z,60
2016-02-23T12:47:11.274Z,60
2016-02-23T12:48:11.263Z,60
2016-02-23T12:49:11.297Z,65
2016-02-23T12:50:11.268Z,60
2016-02-23T12:51:11.271Z,60
2016-02-23T12:52:24.011Z,60
2016-02-23T12:53:11.246Z,55
2016-02-23T12:54:11.279Z,55
2016-02-23T12:55:11.282Z,55
2016-02-23T12:56:11.237Z,55
2016-02-23T12:57:11.240Z,55
2016-02-23T12:58:11.227Z,55
2016-02-23T12:59:11.229Z,60
2016-02-23T13:00:11.247Z,60
2016-02-23T13:01:11.251Z,60
2016-02-23T13:02:11.488Z,65
2016-02-23T13:03:11.240Z,65
2016-02-23T13:04:11.212Z,60
2016-02-23T13:05:11.214Z,60
2016-02-23T13:06:11.233Z,60
2016-02-23T13:07:11.219Z,55
2016-02-23T13:08:11.222Z,55
2016-02-23T13:09:11.178Z,55
2016-02-23T13:10:11.181Z,60
2016-02-23T13:11:11.200Z,70
2016-02-23T13:12:11.046Z,70
2016-02-23T13:13:11.188Z,65
2016-02-23T13:14:11.208Z,65
2016-02-23T13:15:11.164Z,65
2016-02-23T13:16:11.275Z,60
2016-02-23T13:17:11.153Z,60
2016-02-23T13:18:11.202Z,60
2016-02-23T13:19:11.127Z,60
2016-02-23T13:20:11.176Z,65
2016-02-23T13:21:11.148Z,65
2016-02-23T13:22:11.152Z,65
2016-02-23T13:23:11.138Z,65
2016-02-23T13:24:11.157Z,70
2016-02-23T13:25:11.127Z,70
2016-02-23T13:26:11.162Z,70
2016-02-23T13:27:11.117Z,65
2016-02-23T13:28:11.120Z,65
2016-02-23T13:29:23.875Z,65
2016-02-23T13:30:11.125Z,65
2016-02-23T13:31:10.973Z,60
2016-02-23T13:32:11.100Z,60
2016-02-23T13:33:11.134Z,55
2016-02-23T13:34:11.089Z,50
2016-02-23T13:35:11.092Z,50
2016-02-23T13:36:11.111Z,50
2016-02-23T13:37:23.835Z,50
2016-02-23T13:38:11.148Z,50
2016-02-23T13:39:11.087Z,55
2016-02-23T13:40:11.058Z,55
2016-02-23T13:41:15.905Z,55
2016-02-23T13:42:11.985Z,55
2016-02-23T13:43:11.051Z,55
2016-02-23T13:44:11.053Z,60
2016-02-23T13:45:11.088Z,60
2016-02-23T13:46:11.138Z,60
2016-02-23T13:47:11.077Z,60
2016-02-23T13:48:11.033Z,60
2016-02-23T13:49:11.113Z,60
2016-02-23T13:50:23.777Z,60
2016-02-23T13:51:11.027Z,60
2016-02-23T13:52:11.013Z,60
2016-02-23T13:53:11.016Z,55
2016-02-23T13:54:23.755Z,60
2016-02-23T13:55:11.083Z,60
2016-02-23T13:56:11.008Z,60
2016-02-23T13:57:11.042Z,60
2016-02-23T13:58:11.029Z,60
2016-02-23T13:59:23.753Z,60
2016-02-23T14:00:11.003Z,60
2016-02-23T14:01:10.990Z,65
2016-02-23T14:02:10.976Z,65
2016-02-23T14:03:10.979Z,60
2016-02-23T14:04:10.982Z,60
2016-02-23T14:05:23.817Z,55
2016-02-23T14:06:10.988Z,50
2016-02-23T14:07:10.975Z,45
2016-02-23T14:08:10.992Z,40
2016-02-23T14:09:10.996Z,35
2016-02-23T14:10:10.968Z,35
2016-02-23T14:11:10.969Z,35
2016-02-23T14:12:10.972Z,30
2016-02-23T14:13:10.960Z,30
2016-02-23T14:14:10.947Z,30
2016-02-23T14:15:10.950Z,25
2016-02-23T14:16:10.983Z,25
2016-02-23T14:17:10.955Z,25
2016-02-23T14:18:10.926Z,25
2016-02-23T14:19:11.226Z,25
2016-02-23T14:20:10.994Z,25
2016-02-23T14:21:10.935Z,25
2016-02-23T14:22:10.952Z,30
2016-02-23T14:23:10.940Z,30
2016-02-23T14:24:10.926Z,30
2016-02-23T14:25:10.930Z,30